Portada
METAR-TAF:

METAR-TAF

Aeroports :

Nueva Loja, Equador

latitud: 00-05-33N, longitud: 076-52-10W, altitud: 299 m

Observació

L'informe es va fer fa 39 minuts, a les 19:00 UTC
Vent 5 kt del Est/Nord-Est
Temperatura 27°C
Humitat 79%
Pressió 1012 hPa
Visibilitat 10 km o més
Cel ennuvolat a una alçada de 2000 ft

METAR: SENL 041900Z 07005KT 9999 BKN020 27/23 Q1011 A2987

Hora: 14:39 (19:39 UTC)


TAF: manca

Observacions i pronòstics meteorològics de més de 4000 aeroports (METAR i TAF).

Les estacions disponibles són els punts grocs i vermells al mapa.

Posi el ratolí al punt desitjat per veure el nom de l'estació.

Feu clic per veure les observacions i els pronòstics meteorològics.

Per canviar el mapa: feu clic els botons verds amb una creu de color negre per apropar; al botó verd amb un guió per allunyar la imatge; o en les fletxes verdes per a mapes adjacents.


METAR-TAF: